createdAt,value
2022-09-26T00:00:18.229Z,19.63
2022-09-26T00:00:42.281Z,19.83
2022-09-26T00:01:08.228Z,20.45
2022-09-26T00:01:33.204Z,20.35
2022-09-26T00:01:55.499Z,20.17
2022-09-26T00:02:17.809Z,20.63
2022-09-26T00:02:42.158Z,19.58
2022-09-26T00:03:04.041Z,19.60
2022-09-26T00:03:28.559Z,19.63
2022-09-26T00:03:53.894Z,19.90
2022-09-26T00:04:27.913Z,19.27
2022-09-26T00:04:53.730Z,19.55
2022-09-26T00:05:15.657Z,19.70
2022-09-26T00:05:40.857Z,19.65
2022-09-26T00:06:04.793Z,19.80
2022-09-26T00:06:27.207Z,19.83
2022-09-26T00:06:50.132Z,19.13
2022-09-26T00:07:11.931Z,19.25
2022-09-26T00:07:39.528Z,19.35
2022-09-26T00:08:01.705Z,18.83
2022-09-26T00:08:23.523Z,19.55
2022-09-26T00:08:47.522Z,19.75
2022-09-26T00:09:09.518Z,19.88
2022-09-26T00:09:31.469Z,20.02
2022-09-26T00:09:54.444Z,19.17
2022-09-26T00:10:16.352Z,19.13
2022-09-26T00:10:41.162Z,19.85
2022-09-26T00:11:07.557Z,19.95
2022-09-26T00:11:32.213Z,20.05
2022-09-26T00:11:54.589Z,19.95
2022-09-26T00:12:16.914Z,19.80
2022-09-26T00:12:38.661Z,19.52
2022-09-26T00:13:01.756Z,19.48
2022-09-26T00:13:26.110Z,19.58
2022-09-26T00:13:52.596Z,18.50
2022-09-26T00:14:18.096Z,19.40
2022-09-26T00:14:39.909Z,19.05
2022-09-26T00:15:01.702Z,19.90
2022-09-26T00:15:24.340Z,19.23
2022-09-26T00:15:47.713Z,18.67
2022-09-26T00:16:11.826Z,18.38
2022-09-26T00:16:33.913Z,19.45
2022-09-26T00:16:58.773Z,19.27
2022-09-26T00:17:21.450Z,19.35
2022-09-26T00:17:43.278Z,19.60
2022-09-26T00:18:05.053Z,19.10
2022-09-26T00:18:26.994Z,19.25
2022-09-26T00:18:54.154Z,18.73
2022-09-26T00:19:16.954Z,19.80
2022-09-26T00:19:38.811Z,20.23
2022-09-26T00:20:00.812Z,19.20
2022-09-26T00:20:22.634Z,19.15
2022-09-26T00:20:44.526Z,19.38
2022-09-26T00:21:14.405Z,19.50
2022-09-26T00:21:39.057Z,19.13
2022-09-26T00:22:01.025Z,19.35
2022-09-26T00:22:23.553Z,19.63
2022-09-26T00:22:45.272Z,20.15
2022-09-26T00:23:07.085Z,19.33
2022-09-26T00:23:28.889Z,18.88
2022-09-26T00:23:54.409Z,18.90
2022-09-26T00:24:17.134Z,19.63
2022-09-26T00:24:41.722Z,19.63
2022-09-26T00:25:11.631Z,19.55
2022-09-26T00:25:33.579Z,18.98
2022-09-26T00:26:00.612Z,19.05
2022-09-26T00:26:24.175Z,19.25
2022-09-26T00:26:46.160Z,19.33
2022-09-26T00:27:07.955Z,19.75
2022-09-26T00:27:29.725Z,19.38
2022-09-26T00:27:51.532Z,18.92
2022-09-26T00:28:15.794Z,18.52
2022-09-26T00:28:37.826Z,19.15
2022-09-26T00:29:07.183Z,19.00
2022-09-26T00:29:29.123Z,20.38
2022-09-26T00:29:53.338Z,19.75
2022-09-26T00:30:15.225Z,19.13
2022-09-26T00:30:37.386Z,18.83
2022-09-26T00:31:07.955Z,18.73
2022-09-26T00:31:32.863Z,19.75
2022-09-26T00:31:54.669Z,19.75
2022-09-26T00:32:16.891Z,19.48
2022-09-26T00:32:40.506Z,19.75
2022-09-26T00:33:02.287Z,19.65
2022-09-26T00:33:29.013Z,19.17
2022-09-26T00:33:50.996Z,19.27
2022-09-26T00:34:16.394Z,18.65
2022-09-26T00:34:38.793Z,19.20
2022-09-26T00:35:00.611Z,19.27
2022-09-26T00:35:22.651Z,19.27
2022-09-26T00:35:54.965Z,19.20
2022-09-26T00:36:17.046Z,18.88
2022-09-26T00:36:39.345Z,18.35
2022-09-26T00:37:02.688Z,19.73
2022-09-26T00:37:24.721Z,19.35
2022-09-26T00:37:46.692Z,19.58
2022-09-26T00:38:10.223Z,19.15
2022-09-26T00:38:32.290Z,19.50
2022-09-26T00:38:54.260Z,19.10
2022-09-26T00:39:16.646Z,19.52
2022-09-26T00:39:41.356Z,19.30
2022-09-26T00:40:04.207Z,19.05
2022-09-26T00:40:28.194Z,19.83
2022-09-26T00:40:50.522Z,19.83
2022-09-26T00:41:13.598Z,18.65
2022-09-26T00:41:38.776Z,19.55
2022-09-26T00:42:00.768Z,18.80
2022-09-26T00:42:24.311Z,19.50
2022-09-26T00:42:46.884Z,19.58
2022-09-26T00:43:29.750Z,19.05
2022-09-26T00:43:56.610Z,19.38
2022-09-26T00:44:46.297Z,19.38
2022-09-26T00:45:11.958Z,19.17
2022-09-26T00:45:35.121Z,19.23
2022-09-26T00:46:03.502Z,19.77
2022-09-26T00:46:47.652Z,19.45
2022-09-26T00:47:39.225Z,18.80
2022-09-26T00:48:04.704Z,19.40
2022-09-26T00:48:27.057Z,18.65
2022-09-26T00:49:15.598Z,18.58
2022-09-26T00:49:42.115Z,19.17
2022-09-26T00:50:15.812Z,19.08
2022-09-26T00:50:43.335Z,19.58
2022-09-26T00:51:06.075Z,19.07
2022-09-26T00:51:31.200Z,19.70
2022-09-26T00:52:07.329Z,20.15
2022-09-26T00:52:36.687Z,19.73
2022-09-26T00:53:12.901Z,20.08
2022-09-26T00:53:42.472Z,19.73
2022-09-26T00:54:05.961Z,19.52
2022-09-26T00:54:30.029Z,19.25
2022-09-26T00:54:55.592Z,19.55
2022-09-26T00:55:23.180Z,19.40
2022-09-26T00:56:10.946Z,18.92
2022-09-26T00:56:36.191Z,18.95
2022-09-26T00:57:06.194Z,18.88
2022-09-26T00:57:35.780Z,19.23
2022-09-26T00:58:04.636Z,18.95
2022-09-26T00:58:34.951Z,19.20
2022-09-26T00:59:23.173Z,19.13
2022-09-26T00:59:50.459Z,19.23
2022-09-26T01:00:15.125Z,18.95
2022-09-26T01:00:42.355Z,18.67
2022-09-26T01:01:05.981Z,19.23
2022-09-26T01:01:28.707Z,19.17
2022-09-26T01:01:53.442Z,19.63
2022-09-26T01:02:18.316Z,19.65
2022-09-26T01:02:43.249Z,19.48
2022-09-26T01:03:05.376Z,20.05
2022-09-26T01:03:29.027Z,19.70
2022-09-26T01:03:51.249Z,19.80
2022-09-26T01:04:13.635Z,19.25
2022-09-26T01:04:42.434Z,19.55
2022-09-26T01:05:07.066Z,20.35
2022-09-26T01:05:29.126Z,20.02
2022-09-26T01:05:58.105Z,19.98
2022-09-26T01:06:24.382Z,19.75
2022-09-26T01:06:49.458Z,19.55
2022-09-26T01:07:18.050Z,20.02
2022-09-26T01:07:40.193Z,19.85
2022-09-26T01:08:02.888Z,19.77
2022-09-26T01:08:32.486Z,19.13
2022-09-26T01:09:01.362Z,19.15
2022-09-26T01:09:23.701Z,20.10
2022-09-26T01:09:47.652Z,20.27
2022-09-26T01:10:10.449Z,19.33
2022-09-26T01:10:33.002Z,20.17
2022-09-26T01:10:56.026Z,19.95
2022-09-26T01:11:19.474Z,20.48
2022-09-26T01:11:43.283Z,20.20
2022-09-26T01:12:08.839Z,20.02
2022-09-26T01:12:31.833Z,19.92
2022-09-26T01:12:55.505Z,20.65
2022-09-26T01:13:17.645Z,20.13
2022-09-26T01:13:39.834Z,20.27
2022-09-26T01:14:05.780Z,20.05
2022-09-26T01:14:31.651Z,20.48
2022-09-26T01:14:54.892Z,21.05
2022-09-26T01:15:16.746Z,20.75
2022-09-26T01:15:38.992Z,20.65
2022-09-26T01:16:03.892Z,20.90
2022-09-26T01:16:25.790Z,20.73
2022-09-26T01:16:51.328Z,21.38
2022-09-26T01:17:14.240Z,20.40
2022-09-26T01:17:39.058Z,21.73
2022-09-26T01:18:01.063Z,20.73
2022-09-26T01:18:23.190Z,19.77
2022-09-26T01:18:45.767Z,20.05
2022-09-26T01:19:18.975Z,20.63
2022-09-26T01:20:14.205Z,21.52
2022-09-26T01:20:56.526Z,21.10
2022-09-26T01:21:36.323Z,20.70
2022-09-26T01:22:16.582Z,21.15
2022-09-26T01:22:58.013Z,21.20
2022-09-26T01:23:50.467Z,21.17
2022-09-26T01:24:24.113Z,20.65
2022-09-26T01:25:15.629Z,20.70
2022-09-26T01:26:14.515Z,20.17
2022-09-26T01:27:00.207Z,21.42
2022-09-26T01:27:35.310Z,20.08
2022-09-26T01:28:53.818Z,20.80
2022-09-26T01:29:52.327Z,20.52
2022-09-26T01:30:15.912Z,21.15
2022-09-26T01:31:04.407Z,20.55
2022-09-26T01:31:37.576Z,20.35
2022-09-26T01:32:46.559Z,20.65
2022-09-26T01:33:16.094Z,20.58
2022-09-26T01:34:05.606Z,20.35
2022-09-26T01:34:41.293Z,20.38
2022-09-26T01:35:21.501Z,20.42
2022-09-26T01:36:28.897Z,20.27
2022-09-26T01:37:21.356Z,19.55
2022-09-26T01:38:04.541Z,19.90
2022-09-26T01:38:49.003Z,21.38
2022-09-26T01:39:39.961Z,20.42
2022-09-26T01:40:04.570Z,19.80
2022-09-26T01:40:38.271Z,20.13
2022-09-26T01:42:02.531Z,20.38
2022-09-26T01:42:40.698Z,20.73
2022-09-26T01:43:14.416Z,20.83
2022-09-26T01:43:46.469Z,19.92
2022-09-26T01:44:45.902Z,19.95
2022-09-26T01:45:18.970Z,19.80
2022-09-26T01:45:53.123Z,19.15
2022-09-26T01:46:36.700Z,20.42
2022-09-26T01:47:17.767Z,20.63
2022-09-26T01:47:45.370Z,20.08
2022-09-26T01:48:19.394Z,20.23
2022-09-26T01:48:53.313Z,19.38
2022-09-26T01:49:37.740Z,18.73
2022-09-26T01:50:20.684Z,19.63
2022-09-26T01:50:56.215Z,19.48
2022-09-26T01:51:47.305Z,18.90
2022-09-26T01:52:31.024Z,19.25
2022-09-26T01:53:22.816Z,20.63
2022-09-26T01:54:08.312Z,20.40
2022-09-26T01:54:46.315Z,20.23
2022-09-26T01:55:19.378Z,21.20
2022-09-26T01:56:11.116Z,20.55
2022-09-26T01:56:38.508Z,20.92
2022-09-26T01:57:03.970Z,21.13
2022-09-26T01:57:44.477Z,21.02
2022-09-26T01:58:17.422Z,19.60
2022-09-26T01:59:06.207Z,20.10
2022-09-26T01:59:54.911Z,19.70
2022-09-26T02:00:19.841Z,19.50
2022-09-26T02:00:46.678Z,19.73
2022-09-26T02:01:13.441Z,20.05
2022-09-26T02:01:40.225Z,19.77
2022-09-26T02:02:07.812Z,20.13
2022-09-26T02:02:36.017Z,20.20
2022-09-26T02:02:59.565Z,19.92
2022-09-26T02:03:30.419Z,18.25
2022-09-26T02:04:02.365Z,18.80
2022-09-26T02:04:31.357Z,17.75
2022-09-26T02:05:02.869Z,19.02
2022-09-26T02:05:35.881Z,17.55
2022-09-26T02:06:11.261Z,17.98
2022-09-26T02:06:42.482Z,18.23
2022-09-26T02:07:18.219Z,19.30
2022-09-26T02:08:07.981Z,19.35
2022-09-26T02:08:44.358Z,19.42
2022-09-26T02:09:27.075Z,19.98
2022-09-26T02:09:59.412Z,20.33
2022-09-26T02:10:50.337Z,20.15
2022-09-26T02:11:20.607Z,20.88
2022-09-26T02:11:45.930Z,19.52
2022-09-26T02:12:13.028Z,20.00
2022-09-26T02:12:42.169Z,19.77
2022-09-26T02:13:15.128Z,19.95
2022-09-26T02:13:47.949Z,19.60
2022-09-26T02:14:37.248Z,20.35
2022-09-26T02:15:04.939Z,19.90
2022-09-26T02:15:29.941Z,19.95
2022-09-26T02:15:57.533Z,20.42
2022-09-26T02:16:37.512Z,19.80
2022-09-26T02:17:26.228Z,19.33
2022-09-26T02:17:56.062Z,19.30
2022-09-26T02:18:30.760Z,19.55
2022-09-26T02:19:02.819Z,19.95
2022-09-26T02:19:44.589Z,19.13
2022-09-26T02:20:16.715Z,19.08
2022-09-26T02:20:46.450Z,19.20
2022-09-26T02:21:22.242Z,19.00
2022-09-26T02:21:44.576Z,18.98
2022-09-26T02:22:06.509Z,19.30
2022-09-26T02:22:33.921Z,19.60
2022-09-26T02:23:02.221Z,18.65
2022-09-26T02:23:24.144Z,18.75
2022-09-26T02:23:48.769Z,18.48
2022-09-26T02:24:13.568Z,19.00
2022-09-26T02:24:35.871Z,18.55
2022-09-26T02:24:59.137Z,17.85
2022-09-26T02:25:22.289Z,18.60
2022-09-26T02:25:44.376Z,18.55
2022-09-26T02:26:06.769Z,18.55
2022-09-26T02:26:29.527Z,19.45
2022-09-26T02:26:55.977Z,17.98
2022-09-26T02:27:18.503Z,19.20
2022-09-26T02:27:40.651Z,18.77
2022-09-26T02:28:04.354Z,19.65
2022-09-26T02:28:26.390Z,19.95
2022-09-26T02:28:49.437Z,19.05
2022-09-26T02:29:14.690Z,20.33
2022-09-26T02:29:37.075Z,20.85
2022-09-26T02:30:00.540Z,20.50
2022-09-26T02:30:22.852Z,19.17
2022-09-26T02:30:47.400Z,19.75
2022-09-26T02:31:13.607Z,19.98
2022-09-26T02:31:40.481Z,19.90
2022-09-26T02:32:15.918Z,19.92
2022-09-26T02:32:38.377Z,20.83
2022-09-26T02:33:02.360Z,21.73
2022-09-26T02:33:27.474Z,21.33
2022-09-26T02:33:52.196Z,21.00
2022-09-26T02:34:14.654Z,21.80
2022-09-26T02:34:37.986Z,22.27
2022-09-26T02:35:00.563Z,22.13
2022-09-26T02:35:46.919Z,22.08
2022-09-26T02:36:13.659Z,22.48
2022-09-26T02:36:35.816Z,22.60
2022-09-26T02:37:00.771Z,22.17
2022-09-26T02:37:23.968Z,22.13
2022-09-26T02:37:47.467Z,22.05
2022-09-26T02:38:09.982Z,22.67
2022-09-26T02:38:34.777Z,21.90
2022-09-26T02:39:02.132Z,22.73
2022-09-26T02:39:24.843Z,22.63
2022-09-26T02:39:48.064Z,22.48
2022-09-26T02:40:10.182Z,22.63
2022-09-26T02:40:45.806Z,22.38
2022-09-26T02:41:22.846Z,22.70
2022-09-26T02:42:16.054Z,21.98
2022-09-26T02:42:47.716Z,22.10
2022-09-26T02:43:28.240Z,22.23
2022-09-26T02:43:59.359Z,22.17
2022-09-26T02:44:45.416Z,22.20
2022-09-26T02:45:48.789Z,22.35
2022-09-26T02:46:44.299Z,22.63
2022-09-26T02:47:42.306Z,20.65
2022-09-26T02:48:08.207Z,20.50
2022-09-26T02:48:40.594Z,22.07
2022-09-26T02:49:22.954Z,20.45
2022-09-26T02:50:09.297Z,20.70
2022-09-26T02:50:40.017Z,20.67
2022-09-26T02:51:13.025Z,20.90
2022-09-26T02:51:54.456Z,19.95
2022-09-26T02:52:47.244Z,21.77
2022-09-26T02:53:26.744Z,20.90
2022-09-26T02:54:01.454Z,20.90
2022-09-26T02:54:51.935Z,21.48
2022-09-26T02:55:25.908Z,21.83
2022-09-26T02:56:18.273Z,20.90
2022-09-26T02:56:49.734Z,20.27
2022-09-26T02:57:22.706Z,19.40
2022-09-26T02:58:03.207Z,20.85
2022-09-26T02:58:59.861Z,21.05
2022-09-26T03:00:08.148Z,21.17
2022-09-26T03:00:45.778Z,21.52
2022-09-26T03:01:17.992Z,21.35
2022-09-26T03:01:49.190Z,21.00
2022-09-26T03:02:43.341Z,21.88
2022-09-26T03:03:13.851Z,20.65
2022-09-26T03:03:48.049Z,21.25
2022-09-26T03:04:56.406Z,21.60
2022-09-26T03:05:30.038Z,19.95
2022-09-26T03:05:55.173Z,20.60
2022-09-26T03:06:21.461Z,20.13
2022-09-26T03:06:49.317Z,20.73
2022-09-26T03:07:36.503Z,20.90
2022-09-26T03:08:22.487Z,20.50
2022-09-26T03:08:49.296Z,20.27
2022-09-26T03:09:14.192Z,19.90
2022-09-26T03:09:37.197Z,19.73
2022-09-26T03:10:03.760Z,19.73
2022-09-26T03:10:28.633Z,19.08
2022-09-26T03:10:52.368Z,20.48
2022-09-26T03:11:20.842Z,20.35
2022-09-26T03:11:45.729Z,20.63
2022-09-26T03:12:10.056Z,19.00
2022-09-26T03:12:35.100Z,19.38
2022-09-26T03:13:14.705Z,20.63
2022-09-26T03:13:39.027Z,20.33
2022-09-26T03:14:02.873Z,19.45
2022-09-26T03:14:24.782Z,19.60
2022-09-26T03:14:48.207Z,20.13
2022-09-26T03:15:10.773Z,21.00
2022-09-26T03:15:35.196Z,21.10
2022-09-26T03:15:59.624Z,21.58
2022-09-26T03:16:23.884Z,21.08
2022-09-26T03:16:50.106Z,22.08
2022-09-26T03:17:14.530Z,20.65
2022-09-26T03:17:40.271Z,20.38
2022-09-26T03:18:06.928Z,20.95
2022-09-26T03:18:45.809Z,20.40
2022-09-26T03:19:30.266Z,19.50
2022-09-26T03:20:08.955Z,20.60
2022-09-26T03:20:31.579Z,21.13
2022-09-26T03:20:54.230Z,21.52
2022-09-26T03:21:19.097Z,21.00
2022-09-26T03:21:44.656Z,21.20
2022-09-26T03:22:10.062Z,20.88
2022-09-26T03:22:32.102Z,21.35
2022-09-26T03:22:56.409Z,20.40
2022-09-26T03:23:24.570Z,21.52
2022-09-26T03:23:46.957Z,21.45
2022-09-26T03:24:11.287Z,21.50
2022-09-26T03:24:37.957Z,20.77
2022-09-26T03:25:04.155Z,21.73
2022-09-26T03:25:32.516Z,21.38
2022-09-26T03:26:16.336Z,20.92
2022-09-26T03:26:38.899Z,20.55
2022-09-26T03:27:05.694Z,20.55
2022-09-26T03:27:29.334Z,21.35
2022-09-26T03:27:53.423Z,21.60
2022-09-26T03:28:16.632Z,20.33
2022-09-26T03:28:39.036Z,20.60
2022-09-26T03:29:01.493Z,21.60
2022-09-26T03:29:24.092Z,21.55
2022-09-26T03:29:46.479Z,20.85
2022-09-26T03:30:15.800Z,21.00
2022-09-26T03:30:45.617Z,21.20
2022-09-26T03:31:08.925Z,21.17
2022-09-26T03:31:31.546Z,22.08
2022-09-26T03:31:59.162Z,21.55
2022-09-26T03:32:21.789Z,20.92
2022-09-26T03:32:44.176Z,21.57
2022-09-26T03:33:07.313Z,21.95
2022-09-26T03:33:29.708Z,21.10
2022-09-26T03:33:56.352Z,21.35
2022-09-26T03:34:49.763Z,21.13
2022-09-26T03:35:15.243Z,21.38
2022-09-26T03:35:36.954Z,21.52
2022-09-26T03:36:00.110Z,21.60
2022-09-26T03:36:25.935Z,20.95
2022-09-26T03:36:49.733Z,21.27
2022-09-26T03:37:12.499Z,20.63
2022-09-26T03:37:37.163Z,19.80
2022-09-26T03:37:58.894Z,21.42
2022-09-26T03:38:20.716Z,21.58
2022-09-26T03:38:42.699Z,21.95
2022-09-26T03:39:04.841Z,22.30
2022-09-26T03:39:32.113Z,22.85
2022-09-26T03:39:53.942Z,22.52
2022-09-26T03:40:15.968Z,22.45
2022-09-26T03:40:39.809Z,22.38
2022-09-26T03:41:02.829Z,21.98
2022-09-26T03:41:24.628Z,22.52
2022-09-26T03:41:46.824Z,23.20
2022-09-26T03:42:08.990Z,23.02
2022-09-26T03:42:33.455Z,22.52
2022-09-26T03:42:55.154Z,23.35
2022-09-26T03:43:16.861Z,23.02
2022-09-26T03:43:39.027Z,23.15
2022-09-26T03:44:01.277Z,22.27
2022-09-26T03:44:23.260Z,22.55
2022-09-26T03:44:45.266Z,23.10
2022-09-26T03:45:14.083Z,23.02
2022-09-26T03:45:38.544Z,22.75
2022-09-26T03:46:08.442Z,22.63
2022-09-26T03:46:30.254Z,22.80
2022-09-26T03:46:52.620Z,23.63
2022-09-26T03:47:18.855Z,23.48
2022-09-26T03:47:42.080Z,22.38
2022-09-26T03:48:04.334Z,22.67
2022-09-26T03:48:27.206Z,23.20
2022-09-26T03:48:50.813Z,21.98
2022-09-26T03:49:13.148Z,21.48
2022-09-26T03:49:37.196Z,21.63
2022-09-26T03:49:58.947Z,21.50
2022-09-26T03:50:21.046Z,21.88
2022-09-26T03:50:43.135Z,21.65
2022-09-26T03:51:09.443Z,22.05
2022-09-26T03:51:32.976Z,21.98
2022-09-26T03:51:54.938Z,22.60
2022-09-26T03:52:19.911Z,22.27
2022-09-26T03:52:41.995Z,22.77
2022-09-26T03:53:04.087Z,22.83
2022-09-26T03:53:26.092Z,22.85
2022-09-26T03:53:48.020Z,22.90
2022-09-26T03:54:15.262Z,23.17
2022-09-26T03:54:36.968Z,23.30
2022-09-26T03:54:58.689Z,22.17
2022-09-26T03:55:20.473Z,22.58
2022-09-26T03:55:42.485Z,22.75
2022-09-26T03:56:05.701Z,22.25
2022-09-26T03:56:27.530Z,22.63
2022-09-26T03:56:49.358Z,22.40
2022-09-26T03:57:16.205Z,23.08
2022-09-26T03:57:37.940Z,23.13
2022-09-26T03:58:02.841Z,22.73
2022-09-26T03:58:25.120Z,22.20
2022-09-26T03:58:49.077Z,22.02
2022-09-26T03:59:14.041Z,21.63
2022-09-26T03:59:36.004Z,20.80
2022-09-26T03:59:57.771Z,20.90
2022-09-26T04:00:19.571Z,20.85
2022-09-26T04:00:41.398Z,20.55
2022-09-26T04:01:12.014Z,18.73
2022-09-26T04:01:33.811Z,18.98
2022-09-26T04:01:55.636Z,19.20
2022-09-26T04:02:17.881Z,20.17
2022-09-26T04:02:39.670Z,19.48
2022-09-26T04:03:05.408Z,18.90
2022-09-26T04:03:27.481Z,19.02
2022-09-26T04:03:51.740Z,18.35
2022-09-26T04:04:15.244Z,18.85
2022-09-26T04:04:36.935Z,17.90
2022-09-26T04:05:03.822Z,18.05
2022-09-26T04:05:25.542Z,17.67
2022-09-26T04:05:47.290Z,18.55
2022-09-26T04:06:15.216Z,18.90
2022-09-26T04:06:37.949Z,20.15
2022-09-26T04:07:00.275Z,18.98
2022-09-26T04:07:22.482Z,18.73
2022-09-26T04:07:44.741Z,18.63
2022-09-26T04:08:06.530Z,18.00
2022-09-26T04:08:28.686Z,18.45
2022-09-26T04:08:52.381Z,18.63
2022-09-26T04:09:17.012Z,18.10
2022-09-26T04:09:39.023Z,19.15
2022-09-26T04:10:00.857Z,18.95
2022-09-26T04:10:24.150Z,19.35
2022-09-26T04:10:45.916Z,19.05
2022-09-26T04:11:11.279Z,18.77
2022-09-26T04:11:33.359Z,18.85
2022-09-26T04:11:55.183Z,17.98
2022-09-26T04:12:17.098Z,19.02
2022-09-26T04:12:39.557Z,17.23
2022-09-26T04:13:01.273Z,19.65
2022-09-26T04:13:49.455Z,19.88
2022-09-26T04:14:04.818Z,20.08
2022-09-26T04:14:26.557Z,20.75
2022-09-26T04:14:48.380Z,19.92
2022-09-26T04:15:12.555Z,19.95
2022-09-26T04:15:35.931Z,21.10
2022-09-26T04:15:58.738Z,20.38
2022-09-26T04:16:22.749Z,19.85
2022-09-26T04:16:44.797Z,20.00
2022-09-26T04:17:06.579Z,20.25
2022-09-26T04:17:31.284Z,20.70
2022-09-26T04:17:54.722Z,19.40
2022-09-26T04:18:16.444Z,19.90
2022-09-26T04:18:38.694Z,19.25
2022-09-26T04:19:00.773Z,18.05
2022-09-26T04:19:22.508Z,18.60
2022-09-26T04:19:44.220Z,17.70
2022-09-26T04:20:06.310Z,17.92
2022-09-26T04:20:28.479Z,17.75
2022-09-26T04:20:50.317Z,17.70
2022-09-26T04:21:16.097Z,17.42
2022-09-26T04:21:40.098Z,18.23
2022-09-26T04:22:01.874Z,17.98
2022-09-26T04:22:25.186Z,17.05
2022-09-26T04:22:46.895Z,16.60
2022-09-26T04:23:09.402Z,15.98
2022-09-26T04:23:33.735Z,15.90
2022-09-26T04:23:56.337Z,16.75
2022-09-26T04:24:18.124Z,17.42
2022-09-26T04:24:44.012Z,16.98
2022-09-26T04:25:06.262Z,17.55
2022-09-26T04:25:27.974Z,17.55
2022-09-26T04:25:49.696Z,17.25
2022-09-26T04:26:18.678Z,17.13
2022-09-26T04:26:45.376Z,16.63
2022-09-26T04:27:08.546Z,16.70
2022-09-26T04:27:30.282Z,16.67
2022-09-26T04:27:52.006Z,16.40
2022-09-26T04:28:13.725Z,16.05
2022-09-26T04:28:39.759Z,15.38
2022-09-26T04:29:01.480Z,15.10
2022-09-26T04:29:23.276Z,14.82
2022-09-26T04:29:45.425Z,15.35
2022-09-26T04:30:07.614Z,15.80
2022-09-26T04:30:30.316Z,15.32
2022-09-26T04:30:52.053Z,14.48
2022-09-26T04:31:13.800Z,15.20
2022-09-26T04:31:36.516Z,15.05
2022-09-26T04:32:00.697Z,14.57
2022-09-26T04:32:22.527Z,15.25
2022-09-26T04:32:44.214Z,15.80
2022-09-26T04:33:06.725Z,15.15
2022-09-26T04:33:29.591Z,15.05
2022-09-26T04:33:51.581Z,14.63
2022-09-26T04:34:14.828Z,15.80
2022-09-26T04:34:38.337Z,16.27
2022-09-26T04:35:00.139Z,16.00
2022-09-26T04:35:22.248Z,14.88
2022-09-26T04:35:43.973Z,15.25
2022-09-26T04:36:09.294Z,16.35
2022-09-26T04:36:31.874Z,16.75
2022-09-26T04:36:54.109Z,16.17
2022-09-26T04:37:15.970Z,15.70
2022-09-26T04:37:38.102Z,17.65
2022-09-26T04:37:59.851Z,17.17
2022-09-26T04:38:21.824Z,16.38
2022-09-26T04:38:43.867Z,17.02
2022-09-26T04:39:05.715Z,16.80
2022-09-26T04:39:27.482Z,16.55
2022-09-26T04:39:49.212Z,16.02
2022-09-26T04:40:11.350Z,17.40
2022-09-26T04:40:36.432Z,16.83
2022-09-26T04:41:13.266Z,17.00
2022-09-26T04:41:38.873Z,17.00
2022-09-26T04:42:00.794Z,17.38
2022-09-26T04:42:25.713Z,16.05
2022-09-26T04:42:47.538Z,16.42
2022-09-26T04:43:09.513Z,15.75
2022-09-26T04:43:31.991Z,16.58
2022-09-26T04:43:55.004Z,16.50
2022-09-26T04:44:16.912Z,16.90
2022-09-26T04:44:39.741Z,17.02
2022-09-26T04:45:01.597Z,16.88
2022-09-26T04:45:23.633Z,15.75
2022-09-26T04:45:45.438Z,17.10
2022-09-26T04:46:21.716Z,16.92
2022-09-26T04:46:44.750Z,16.88
2022-09-26T04:47:06.667Z,15.73
2022-09-26T04:47:29.206Z,16.05
2022-09-26T04:47:51.186Z,18.63
2022-09-26T04:48:12.905Z,17.30
2022-09-26T04:48:34.779Z,16.65
2022-09-26T04:48:58.071Z,17.55
2022-09-26T04:49:20.108Z,18.88
2022-09-26T04:49:41.968Z,18.50
2022-09-26T04:50:03.877Z,18.13
2022-09-26T04:50:26.225Z,18.33
2022-09-26T04:50:49.141Z,18.43
2022-09-26T04:51:13.498Z,18.00
2022-09-26T04:51:36.064Z,19.30
2022-09-26T04:51:57.805Z,18.88
2022-09-26T04:52:20.241Z,19.58
2022-09-26T04:52:41.968Z,19.60
2022-09-26T04:53:06.430Z,19.55
2022-09-26T04:53:29.418Z,19.60
2022-09-26T04:53:51.802Z,18.95
2022-09-26T04:54:13.728Z,20.23
2022-09-26T04:54:40.552Z,20.25
2022-09-26T04:55:03.997Z,19.63
2022-09-26T04:56:59.379Z,19.58
2022-09-26T04:57:23.918Z,19.45
2022-09-26T04:58:36.308Z,18.60
2022-09-26T04:59:00.343Z,20.58
2022-09-26T05:00:17.289Z,19.50
2022-09-26T05:01:35.226Z,20.50
2022-09-26T05:01:57.530Z,21.42
2022-09-26T05:02:20.622Z,22.20
2022-09-26T05:02:47.167Z,22.25
2022-09-26T05:03:10.456Z,22.63
2022-09-26T05:03:41.463Z,22.17
2022-09-26T05:04:04.082Z,21.65
2022-09-26T05:04:30.011Z,21.55
2022-09-26T05:04:51.749Z,21.88
2022-09-26T05:05:14.421Z,21.95
2022-09-26T05:05:36.255Z,22.58
2022-09-26T05:05:58.255Z,22.35
2022-09-26T05:06:20.447Z,22.23
2022-09-26T05:06:44.842Z,22.45
2022-09-26T05:07:06.752Z,21.73
2022-09-26T05:07:29.716Z,21.17
2022-09-26T05:07:52.442Z,23.25
2022-09-26T05:08:15.337Z,22.55
2022-09-26T05:08:39.485Z,21.08
2022-09-26T05:09:01.385Z,22.42
2022-09-26T05:09:23.273Z,21.33
2022-09-26T05:09:45.227Z,21.30
2022-09-26T05:10:10.097Z,24.15
2022-09-26T05:10:31.914Z,26.77
2022-09-26T05:10:56.319Z,21.08
2022-09-26T05:11:22.078Z,20.63
2022-09-26T05:11:46.766Z,21.65
2022-09-26T05:12:09.074Z,20.40
2022-09-26T05:12:34.590Z,20.88
2022-09-26T05:12:59.655Z,21.08
2022-09-26T05:13:25.668Z,21.02
2022-09-26T05:13:54.182Z,21.50
2022-09-26T05:14:16.787Z,21.02
2022-09-26T05:14:38.674Z,22.05
2022-09-26T05:15:06.980Z,21.55
2022-09-26T05:15:31.530Z,19.98
2022-09-26T05:15:55.585Z,20.85
2022-09-26T05:16:18.521Z,20.73
2022-09-26T05:16:40.485Z,20.05
2022-09-26T05:17:02.732Z,20.40
2022-09-26T05:17:28.587Z,20.50
2022-09-26T05:17:57.127Z,20.55
2022-09-26T05:18:21.604Z,20.20
2022-09-26T05:18:43.511Z,21.15
2022-09-26T05:19:05.350Z,20.73
2022-09-26T05:19:29.598Z,20.83
2022-09-26T05:19:51.665Z,21.13
2022-09-26T05:20:14.288Z,21.02
2022-09-26T05:20:39.338Z,21.55
2022-09-26T05:21:06.725Z,20.27
2022-09-26T05:21:29.125Z,20.50
2022-09-26T05:21:50.901Z,20.27
2022-09-26T05:22:12.699Z,20.00
2022-09-26T05:22:35.385Z,21.17
2022-09-26T05:23:00.929Z,21.27
2022-09-26T05:23:45.056Z,20.20
2022-09-26T05:24:28.518Z,20.73
2022-09-26T05:25:10.657Z,20.38
2022-09-26T05:25:58.592Z,21.67
2022-09-26T05:26:26.424Z,20.70
2022-09-26T05:26:51.489Z,20.95
2022-09-26T05:27:15.271Z,21.23
2022-09-26T05:27:37.306Z,21.27
2022-09-26T05:27:59.176Z,21.40
2022-09-26T05:28:24.072Z,22.30
2022-09-26T05:28:51.132Z,22.17
2022-09-26T05:29:18.561Z,22.45
2022-09-26T05:29:45.147Z,21.67
2022-09-26T05:30:08.225Z,22.17
2022-09-26T05:30:31.335Z,21.63
2022-09-26T05:31:07.481Z,22.45
2022-09-26T05:31:30.109Z,21.38
2022-09-26T05:31:57.916Z,22.40
2022-09-26T05:32:20.881Z,22.52
2022-09-26T05:32:47.009Z,21.90
2022-09-26T05:33:17.009Z,21.80
2022-09-26T05:33:42.706Z,20.65
2022-09-26T05:34:05.791Z,22.02
2022-09-26T05:34:27.603Z,22.63
2022-09-26T05:34:49.332Z,24.10
2022-09-26T05:35:11.386Z,22.25
2022-09-26T05:35:36.166Z,23.23
2022-09-26T05:35:58.676Z,24.08
2022-09-26T05:36:20.539Z,21.65
2022-09-26T05:36:42.901Z,21.85
2022-09-26T05:37:06.106Z,22.67
2022-09-26T05:37:28.022Z,23.52
2022-09-26T05:37:57.864Z,23.48
2022-09-26T05:38:19.780Z,27.25
2022-09-26T05:38:42.741Z,30.45
2022-09-26T05:39:25.792Z,23.50
2022-09-26T05:40:06.024Z,22.60
2022-09-26T05:40:46.584Z,22.58
2022-09-26T05:41:08.455Z,23.83
2022-09-26T05:41:32.009Z,22.92
2022-09-26T05:41:54.585Z,22.83
2022-09-26T05:42:16.455Z,22.05
2022-09-26T05:42:38.308Z,21.50
2022-09-26T05:43:02.013Z,21.67
2022-09-26T05:43:29.122Z,20.77
2022-09-26T05:43:51.000Z,21.38
2022-09-26T05:44:13.255Z,20.23
2022-09-26T05:44:35.113Z,19.55
2022-09-26T05:44:56.902Z,19.48
2022-09-26T05:45:19.898Z,21.30
2022-09-26T05:45:44.139Z,20.00
2022-09-26T05:46:09.267Z,19.70
2022-09-26T05:46:34.926Z,25.70
2022-09-26T05:46:59.669Z,23.15
2022-09-26T05:47:24.323Z,20.42
2022-09-26T05:47:48.651Z,20.55
2022-09-26T05:48:13.620Z,21.88
2022-09-26T05:48:37.651Z,20.48
2022-09-26T05:48:59.623Z,20.25
2022-09-26T05:49:21.367Z,22.33
2022-09-26T05:49:43.614Z,21.23
2022-09-26T05:50:10.290Z,20.25
2022-09-26T05:50:33.211Z,20.08
2022-09-26T05:50:55.085Z,19.90
2022-09-26T05:51:23.169Z,19.20
2022-09-26T05:51:46.522Z,18.35
2022-09-26T05:52:08.411Z,18.52
2022-09-26T05:52:32.477Z,18.70
2022-09-26T05:52:59.029Z,19.23
2022-09-26T05:53:22.428Z,18.77
2022-09-26T05:53:46.050Z,18.77
2022-09-26T05:54:08.164Z,18.38
2022-09-26T05:54:31.367Z,18.90
2022-09-26T05:54:53.358Z,18.05